createdAt,value
2018-03-27T00:02:07.610Z,91.61
2018-03-27T00:04:33.635Z,91.28
2018-03-27T00:06:59.688Z,91.34
2018-03-27T00:09:25.837Z,90.56
2018-03-27T00:11:51.977Z,90.74
2018-03-27T00:14:18.011Z,91.29
2018-03-27T00:16:44.008Z,91.45
2018-03-27T00:19:10.042Z,90.64
2018-03-27T00:21:36.076Z,90.54
2018-03-27T00:24:02.074Z,90.41
2018-03-27T00:26:28.192Z,90.26
2018-03-27T00:29:06.484Z,89.92
2018-03-27T00:31:44.694Z,90.19
2018-03-27T00:34:22.809Z,89.85
2018-03-27T00:37:00.939Z,90.08
2018-03-27T00:39:38.960Z,89.94
2018-03-27T00:42:20.700Z,90.11
2018-03-27T00:44:46.692Z,91.22
2018-03-27T00:47:12.687Z,91.76
2018-03-27T00:49:38.692Z,91.26
2018-03-27T00:52:04.695Z,90.63
2018-03-27T00:54:30.694Z,91.04
2018-03-27T00:56:56.707Z,91.44
2018-03-27T00:59:22.728Z,91.20
2018-03-27T01:01:48.729Z,91.18
2018-03-27T01:04:14.721Z,91.79
2018-03-27T01:06:40.721Z,91.13
2018-03-27T01:09:06.725Z,91.77
2018-03-27T01:11:32.716Z,91.29
2018-03-27T01:13:58.789Z,91.20
2018-03-27T01:16:24.785Z,92.42
2018-03-27T01:18:50.786Z,91.58
2018-03-27T01:21:16.763Z,91.45
2018-03-27T01:23:42.814Z,91.12
2018-03-27T01:26:08.832Z,91.45
2018-03-27T01:28:35.602Z,91.29
2018-03-27T01:31:01.699Z,91.06
2018-03-27T01:33:27.703Z,91.29
2018-03-27T01:35:53.722Z,91.66
2018-03-27T01:38:19.846Z,91.67
2018-03-27T01:40:45.876Z,91.87
2018-03-27T01:43:11.900Z,92.11
2018-03-27T01:45:37.895Z,91.87
2018-03-27T01:48:03.958Z,91.58
2018-03-27T01:50:30.096Z,91.39
2018-03-27T01:52:56.107Z,90.92
2018-03-27T01:55:22.133Z,91.43
2018-03-27T01:57:48.695Z,91.28
2018-03-27T02:00:14.708Z,91.27
2018-03-27T02:02:40.725Z,90.84
2018-03-27T02:05:06.722Z,91.28
2018-03-27T02:07:32.723Z,91.11
2018-03-27T02:09:58.744Z,91.77
2018-03-27T02:12:30.643Z,91.01
2018-03-27T02:15:02.649Z,91.02
2018-03-27T02:17:34.643Z,91.32
2018-03-27T02:20:06.677Z,91.77
2018-03-27T02:22:33.602Z,91.59
2018-03-27T02:24:59.709Z,91.91
2018-03-27T02:27:25.835Z,92.17
2018-03-27T02:29:51.821Z,92.51
2018-03-27T02:32:17.913Z,92.88
2018-03-27T02:34:44.146Z,93.23
2018-03-27T02:37:10.303Z,94.15
2018-03-27T02:39:36.364Z,94.36
2018-03-27T02:42:02.378Z,94.26
2018-03-27T02:44:28.407Z,94.40
2018-03-27T02:46:54.468Z,93.67
2018-03-27T02:49:20.466Z,92.95
2018-03-27T02:51:46.462Z,93.49
2018-03-27T02:54:12.508Z,92.93
2018-03-27T02:56:38.517Z,93.16
2018-03-27T02:59:04.529Z,92.86
2018-03-27T03:01:30.577Z,93.05
2018-03-27T03:03:56.589Z,93.45
2018-03-27T03:06:22.569Z,93.38
2018-03-27T03:08:48.712Z,93.33
2018-03-27T03:11:14.726Z,93.36
2018-03-27T03:13:40.710Z,93.23
2018-03-27T03:16:06.718Z,93.98
2018-03-27T03:18:32.701Z,93.94
2018-03-27T03:20:58.701Z,93.19
2018-03-27T03:23:24.697Z,93.50
2018-03-27T03:25:50.689Z,94.25
2018-03-27T03:28:16.714Z,94.76
2018-03-27T03:30:42.701Z,94.20
2018-03-27T03:33:08.712Z,94.16
2018-03-27T03:35:34.708Z,93.60
2018-03-27T03:38:00.695Z,93.47
2018-03-27T03:40:26.673Z,92.90
2018-03-27T03:42:52.685Z,92.89
2018-03-27T03:45:18.662Z,93.35
2018-03-27T03:47:44.644Z,92.83
2018-03-27T03:50:10.706Z,92.69
2018-03-27T03:52:36.725Z,92.64
2018-03-27T03:55:02.709Z,92.42
2018-03-27T03:57:28.695Z,92.28
2018-03-27T03:59:54.673Z,92.41
2018-03-27T04:02:20.735Z,92.16
2018-03-27T04:04:46.725Z,93.09
2018-03-27T04:07:12.760Z,92.26
2018-03-27T04:09:38.741Z,92.57
2018-03-27T04:12:04.711Z,92.66
2018-03-27T04:14:30.766Z,93.13
2018-03-27T04:16:56.796Z,92.62
2018-03-27T04:19:22.809Z,92.33
2018-03-27T04:21:48.773Z,91.97
2018-03-27T04:24:14.750Z,92.45
2018-03-27T04:26:40.746Z,92.09
2018-03-27T04:29:06.705Z,92.04
2018-03-27T04:31:32.720Z,92.45
2018-03-27T04:33:58.713Z,91.95
2018-03-27T04:36:24.713Z,92.46
2018-03-27T04:38:50.718Z,92.04
2018-03-27T04:41:16.711Z,92.25
2018-03-27T04:43:42.695Z,92.04
2018-03-27T04:46:08.748Z,92.13
2018-03-27T04:48:34.756Z,91.71
2018-03-27T04:51:00.811Z,91.95
2018-03-27T04:53:26.801Z,91.59
2018-03-27T04:55:52.800Z,91.58
2018-03-27T04:58:18.796Z,92.20
2018-03-27T05:00:44.791Z,92.45
2018-03-27T05:03:10.766Z,91.68
2018-03-27T05:05:36.796Z,92.13
2018-03-27T05:08:02.824Z,91.56
2018-03-27T05:10:28.818Z,91.68
2018-03-27T05:12:54.817Z,92.01
2018-03-27T05:15:22.075Z,92.43
2018-03-27T05:17:48.163Z,92.10
2018-03-27T05:20:14.191Z,92.28
2018-03-27T05:22:40.230Z,91.97
2018-03-27T05:25:06.278Z,92.25
2018-03-27T05:27:32.472Z,92.46
2018-03-27T05:29:58.565Z,91.73
2018-03-27T05:32:24.975Z,92.06
2018-03-27T05:34:50.966Z,92.18
2018-03-27T05:37:16.984Z,91.99
2018-03-27T05:39:43.012Z,91.86
2018-03-27T05:42:09.079Z,92.08
2018-03-27T05:44:35.098Z,93.56
2018-03-27T05:47:01.081Z,93.27
2018-03-27T05:49:27.078Z,93.32
2018-03-27T05:51:53.103Z,92.77
2018-03-27T05:54:19.208Z,93.34
2018-03-27T05:56:45.474Z,93.66
2018-03-27T05:59:11.546Z,92.58
2018-03-27T06:01:38.001Z,92.81
2018-03-27T06:04:04.450Z,92.51
2018-03-27T06:06:30.446Z,92.16
2018-03-27T06:08:56.475Z,92.44
2018-03-27T06:11:22.441Z,92.16
2018-03-27T06:13:48.427Z,91.43
2018-03-27T06:16:14.518Z,91.34
2018-03-27T06:18:40.553Z,91.18
2018-03-27T06:21:06.532Z,91.03
2018-03-27T06:23:32.545Z,90.57
2018-03-27T06:25:58.557Z,89.95
2018-03-27T06:28:24.562Z,89.03
2018-03-27T06:30:50.546Z,88.75
2018-03-27T06:33:16.603Z,88.10
2018-03-27T06:35:42.609Z,87.75
2018-03-27T06:38:08.598Z,87.51
2018-03-27T06:40:34.638Z,86.89
2018-03-27T06:43:00.665Z,86.33
2018-03-27T06:45:26.666Z,86.11
2018-03-27T06:47:54.127Z,85.46
2018-03-27T06:50:20.122Z,85.79
2018-03-27T06:52:46.358Z,85.45
2018-03-27T06:55:12.389Z,85.01
2018-03-27T06:57:38.512Z,84.90
2018-03-27T07:00:04.509Z,84.55
2018-03-27T07:02:30.566Z,84.29
2018-03-27T07:04:56.568Z,84.06
2018-03-27T07:07:22.642Z,82.54
2018-03-27T07:09:48.725Z,81.54
2018-03-27T07:12:14.777Z,81.97
2018-03-27T07:14:40.827Z,80.92
2018-03-27T07:17:06.989Z,79.36
2018-03-27T07:19:33.247Z,79.61
2018-03-27T07:21:59.259Z,78.14
2018-03-27T07:24:25.250Z,76.42
2018-03-27T07:26:51.282Z,75.51
2018-03-27T07:29:17.310Z,74.73
2018-03-27T07:31:43.455Z,74.11
2018-03-27T07:34:09.515Z,74.07
2018-03-27T07:36:36.177Z,73.95
2018-03-27T07:39:02.274Z,72.69
2018-03-27T07:41:28.331Z,70.39
2018-03-27T07:43:54.447Z,70.53
2018-03-27T07:46:20.569Z,69.93
2018-03-27T07:48:46.575Z,69.67
2018-03-27T07:51:12.564Z,70.46
2018-03-27T07:53:38.563Z,70.46
2018-03-27T07:56:04.590Z,68.99
2018-03-27T07:58:30.607Z,70.53
2018-03-27T08:00:56.653Z,69.46
2018-03-27T08:03:22.718Z,68.99
2018-03-27T08:05:48.807Z,68.44
2018-03-27T08:08:14.814Z,67.67
2018-03-27T08:10:40.874Z,66.40
2018-03-27T08:13:06.903Z,64.45
2018-03-27T08:15:32.924Z,65.06
2018-03-27T08:17:58.980Z,62.71
2018-03-27T08:20:25.673Z,62.00
2018-03-27T08:22:51.769Z,61.18
2018-03-27T08:25:17.792Z,60.76
2018-03-27T08:27:43.838Z,61.79
2018-03-27T08:30:09.956Z,62.05
2018-03-27T08:32:37.034Z,61.49
2018-03-27T08:35:03.103Z,62.16
2018-03-27T08:37:29.130Z,62.35
2018-03-27T08:39:55.157Z,62.55
2018-03-27T08:42:21.182Z,62.85
2018-03-27T08:44:47.266Z,62.54
2018-03-27T08:47:13.340Z,62.31
2018-03-27T08:49:39.353Z,62.75
2018-03-27T08:52:05.368Z,63.06
2018-03-27T08:54:31.376Z,63.21
2018-03-27T08:56:57.379Z,62.41
2018-03-27T08:59:23.458Z,61.96
2018-03-27T09:01:49.571Z,61.35
2018-03-27T09:04:15.656Z,60.71
2018-03-27T09:06:41.668Z,61.29
2018-03-27T09:09:07.726Z,61.89
2018-03-27T09:11:33.933Z,62.19
2018-03-27T09:14:00.081Z,61.14
2018-03-27T09:16:26.212Z,61.04
2018-03-27T09:18:52.247Z,61.01
2018-03-27T09:21:18.291Z,60.64
2018-03-27T09:23:45.293Z,59.70
2018-03-27T09:26:11.446Z,59.77
2018-03-27T09:28:37.539Z,58.63
2018-03-27T09:31:03.546Z,58.64
2018-03-27T09:33:29.647Z,58.39
2018-03-27T09:35:55.688Z,58.70
2018-03-27T09:38:21.752Z,57.98
2018-03-27T09:40:47.737Z,57.12
2018-03-27T09:43:13.871Z,56.55
2018-03-27T09:45:39.895Z,55.64
2018-03-27T09:48:05.906Z,55.28
2018-03-27T09:50:31.954Z,55.35
2018-03-27T09:52:58.018Z,55.14
2018-03-27T09:55:24.591Z,56.79
2018-03-27T09:57:50.606Z,56.13
2018-03-27T10:00:16.751Z,56.59
2018-03-27T10:02:42.793Z,56.16
2018-03-27T10:05:08.881Z,56.69
2018-03-27T10:07:34.898Z,57.14
2018-03-27T10:10:00.913Z,57.27
2018-03-27T10:12:26.936Z,57.02
2018-03-27T10:14:52.977Z,56.89
2018-03-27T10:17:18.986Z,56.87
2018-03-27T10:19:45.035Z,56.38
2018-03-27T10:22:11.184Z,56.87
2018-03-27T10:24:37.831Z,58.06
2018-03-27T10:27:04.002Z,57.96
2018-03-27T10:29:30.018Z,58.39
2018-03-27T10:31:56.053Z,58.48
2018-03-27T10:34:22.215Z,58.42
2018-03-27T10:36:48.266Z,58.58
2018-03-27T10:39:14.272Z,58.54
2018-03-27T10:41:40.249Z,58.37
2018-03-27T10:44:06.368Z,58.01
2018-03-27T10:46:32.382Z,58.65
2018-03-27T10:48:58.392Z,59.07
2018-03-27T10:51:24.470Z,58.54
2018-03-27T10:53:50.539Z,57.42
2018-03-27T10:56:16.567Z,57.92
2018-03-27T10:58:42.638Z,58.02
2018-03-27T11:01:08.733Z,59.02
2018-03-27T11:03:34.742Z,59.23
2018-03-27T11:06:00.764Z,59.83
2018-03-27T11:08:26.775Z,59.25
2018-03-27T11:10:52.763Z,60.22
2018-03-27T11:13:18.837Z,60.80
2018-03-27T11:15:44.899Z,61.56
2018-03-27T11:18:10.999Z,61.64
2018-03-27T11:20:37.093Z,61.85
2018-03-27T11:23:03.112Z,62.44
2018-03-27T11:25:29.098Z,62.75
2018-03-27T11:27:55.138Z,63.41
2018-03-27T11:30:21.181Z,63.83
2018-03-27T11:32:47.264Z,64.26
2018-03-27T11:35:13.339Z,64.39
2018-03-27T11:37:39.439Z,65.21
2018-03-27T11:40:05.500Z,65.96
2018-03-27T11:42:31.558Z,66.54
2018-03-27T11:44:57.669Z,67.08
2018-03-27T11:47:23.703Z,68.35
2018-03-27T11:49:49.694Z,69.06
2018-03-27T11:52:15.869Z,69.69
2018-03-27T11:54:42.053Z,70.61
2018-03-27T11:57:08.146Z,70.76
2018-03-27T11:59:34.174Z,71.50
2018-03-27T12:02:00.206Z,73.87
2018-03-27T12:04:26.322Z,73.30
2018-03-27T12:06:52.421Z,73.76
2018-03-27T12:09:18.420Z,74.50
2018-03-27T12:11:44.438Z,75.76
2018-03-27T12:14:10.486Z,75.96
2018-03-27T12:16:36.506Z,76.09
2018-03-27T12:19:02.513Z,75.91
2018-03-27T12:21:28.586Z,76.15
2018-03-27T12:23:54.586Z,78.33
2018-03-27T12:26:20.596Z,78.16
2018-03-27T12:28:46.612Z,79.07
2018-03-27T12:31:12.633Z,80.31
2018-03-27T12:33:38.658Z,81.81
2018-03-27T12:36:04.730Z,80.94
2018-03-27T12:38:30.846Z,81.72
2018-03-27T12:40:56.858Z,82.24
2018-03-27T12:43:22.874Z,83.24
2018-03-27T12:45:48.873Z,84.78
2018-03-27T12:48:14.875Z,83.51
2018-03-27T12:50:40.904Z,83.97
2018-03-27T12:53:06.922Z,85.04
2018-03-27T12:55:32.943Z,82.85
2018-03-27T12:57:58.920Z,85.62
2018-03-27T13:00:24.942Z,84.33
2018-03-27T13:02:50.994Z,84.36
2018-03-27T13:05:17.014Z,84.94
2018-03-27T13:07:43.058Z,85.02
2018-03-27T13:10:09.209Z,88.91
2018-03-27T13:12:35.242Z,89.71
2018-03-27T13:15:02.041Z,89.38
2018-03-27T13:17:35.063Z,86.27
2018-03-27T13:20:01.141Z,87.46
2018-03-27T13:22:27.189Z,87.97
2018-03-27T13:24:53.836Z,87.42
2018-03-27T13:27:19.990Z,86.23
2018-03-27T13:29:46.048Z,86.16
2018-03-27T13:32:12.154Z,86.44
2018-03-27T13:34:39.098Z,86.54
2018-03-27T13:37:05.129Z,86.90
2018-03-27T13:39:31.894Z,87.33
2018-03-27T13:41:58.058Z,87.54
2018-03-27T13:44:24.194Z,86.64
2018-03-27T13:46:50.301Z,87.19
2018-03-27T13:49:16.344Z,87.92
2018-03-27T13:51:42.420Z,87.54
2018-03-27T13:54:08.662Z,87.16
2018-03-27T13:56:34.671Z,86.49
2018-03-27T13:59:00.678Z,86.87
2018-03-27T14:01:26.744Z,86.53
2018-03-27T14:03:52.758Z,86.93
2018-03-27T14:06:18.769Z,86.59
2018-03-27T14:08:44.829Z,86.59
2018-03-27T14:11:10.839Z,86.82
2018-03-27T14:13:36.828Z,85.79
2018-03-27T14:16:02.870Z,86.80
2018-03-27T14:18:28.919Z,86.38
2018-03-27T14:20:54.930Z,86.47
2018-03-27T14:23:20.965Z,86.65
2018-03-27T14:25:47.000Z,87.52
2018-03-27T14:28:12.995Z,86.98
2018-03-27T14:30:39.062Z,86.80
2018-03-27T14:33:05.043Z,87.82
2018-03-27T14:35:31.064Z,88.46
2018-03-27T14:37:57.108Z,88.38
2018-03-27T14:40:23.157Z,89.39
2018-03-27T14:42:49.193Z,88.24
2018-03-27T14:45:15.292Z,89.35
2018-03-27T14:47:41.293Z,88.32
2018-03-27T14:50:07.363Z,88.27
2018-03-27T14:52:33.622Z,88.70
2018-03-27T14:54:59.764Z,89.58
2018-03-27T14:57:25.829Z,89.53
2018-03-27T14:59:51.877Z,89.74
2018-03-27T15:02:17.968Z,90.07
2018-03-27T15:04:44.043Z,90.37
2018-03-27T15:07:10.100Z,90.49
2018-03-27T15:09:36.118Z,90.14
2018-03-27T15:12:02.643Z,91.72
2018-03-27T15:14:28.687Z,91.55
2018-03-27T15:16:54.723Z,91.21
2018-03-27T15:19:20.766Z,92.15
2018-03-27T15:21:46.804Z,92.27
2018-03-27T15:24:12.818Z,92.28
2018-03-27T15:26:38.914Z,93.29
2018-03-27T15:29:04.981Z,93.60
2018-03-27T15:31:31.010Z,93.35
2018-03-27T15:33:57.034Z,93.95
2018-03-27T15:36:23.507Z,93.57
2018-03-27T15:38:49.530Z,93.66
2018-03-27T15:41:15.629Z,94.22
2018-03-27T15:43:41.734Z,94.03
2018-03-27T15:46:07.750Z,93.40
2018-03-27T15:48:33.813Z,94.27
2018-03-27T15:51:00.470Z,93.84
2018-03-27T15:53:26.509Z,93.83
2018-03-27T15:55:52.547Z,94.05
2018-03-27T15:58:18.601Z,94.47
2018-03-27T16:00:44.614Z,94.11
2018-03-27T16:03:10.643Z,94.72
2018-03-27T16:05:36.736Z,94.69
2018-03-27T16:08:02.744Z,94.59
2018-03-27T16:10:28.801Z,95.16
2018-03-27T16:12:54.883Z,95.19
2018-03-27T16:15:20.904Z,95.07
2018-03-27T16:17:46.922Z,95.20
2018-03-27T16:20:12.966Z,95.08
2018-03-27T16:22:38.999Z,94.97
2018-03-27T16:25:05.021Z,94.53
2018-03-27T16:27:31.118Z,95.34
2018-03-27T16:29:57.105Z,95.60
2018-03-27T16:32:23.189Z,95.58
2018-03-27T16:34:49.307Z,95.75
2018-03-27T16:37:16.325Z,96.05
2018-03-27T16:39:42.355Z,95.76
2018-03-27T16:42:08.540Z,95.54
2018-03-27T16:44:35.613Z,95.06
2018-03-27T16:47:01.758Z,96.17
2018-03-27T16:49:27.840Z,95.83
2018-03-27T16:51:53.850Z,96.01
2018-03-27T16:54:19.920Z,96.11
2018-03-27T16:56:46.036Z,96.53
2018-03-27T16:59:12.121Z,96.60
2018-03-27T17:01:38.169Z,96.17
2018-03-27T17:04:04.243Z,96.47
2018-03-27T17:06:30.351Z,96.90
2018-03-27T17:08:56.444Z,96.92
2018-03-27T17:11:22.459Z,96.96
2018-03-27T17:13:48.484Z,97.43
2018-03-27T17:16:14.594Z,96.96
2018-03-27T17:18:40.643Z,97.34
2018-03-27T17:21:06.652Z,96.92
2018-03-27T17:23:32.691Z,97.46
2018-03-27T17:25:58.752Z,97.27
2018-03-27T17:28:24.779Z,97.04
2018-03-27T17:31:55.494Z,98.97
2018-03-27T17:34:21.535Z,99.33
2018-03-27T17:36:47.638Z,99.80
2018-03-27T17:39:17.014Z,99.62
2018-03-27T17:41:43.064Z,99.79
2018-03-27T17:44:09.117Z,99.88
2018-03-27T17:46:35.185Z,99.91
2018-03-27T17:49:01.208Z,100.00
2018-03-27T17:51:27.284Z,100.00
2018-03-27T17:53:53.396Z,100.00
2018-03-27T17:56:19.550Z,100.00
2018-03-27T17:58:45.620Z,100.00
2018-03-27T18:01:11.694Z,100.00
2018-03-27T18:03:37.749Z,100.00
2018-03-27T18:06:03.813Z,100.00
2018-03-27T18:08:30.026Z,100.00
2018-03-27T18:10:56.158Z,100.00
2018-03-27T18:13:22.318Z,100.00
2018-03-27T18:15:48.464Z,100.00
2018-03-27T18:18:14.553Z,100.00
2018-03-27T18:20:40.683Z,100.00
2018-03-27T18:23:06.738Z,100.00
2018-03-27T18:25:32.809Z,100.00
2018-03-27T18:27:58.896Z,100.00
2018-03-27T18:30:25.025Z,100.00
2018-03-27T18:32:51.066Z,100.00
2018-03-27T18:35:17.101Z,100.00
2018-03-27T18:37:43.142Z,100.00
2018-03-27T18:40:09.319Z,100.00
2018-03-27T18:42:35.405Z,100.00
2018-03-27T18:45:01.482Z,100.00
2018-03-27T18:47:27.559Z,100.00
2018-03-27T18:49:53.625Z,100.00
2018-03-27T18:52:19.792Z,100.00
2018-03-27T18:54:46.017Z,100.00
2018-03-27T18:57:12.154Z,100.00
2018-03-27T18:59:38.281Z,100.00
2018-03-27T19:02:04.337Z,100.00
2018-03-27T19:04:30.359Z,100.00
2018-03-27T19:06:56.587Z,100.00
2018-03-27T19:09:22.755Z,100.00
2018-03-27T19:11:48.827Z,100.00
2018-03-27T19:14:14.935Z,100.00
2018-03-27T19:16:41.002Z,100.00
2018-03-27T19:19:07.150Z,100.00
2018-03-27T19:21:33.183Z,100.00
2018-03-27T19:23:59.273Z,100.00
2018-03-27T19:26:25.307Z,100.00
2018-03-27T19:28:51.344Z,100.00
2018-03-27T19:31:17.394Z,100.00
2018-03-27T19:33:43.430Z,100.00
2018-03-27T19:36:11.451Z,100.00
2018-03-27T19:38:37.793Z,100.00
2018-03-27T19:41:03.822Z,100.00
2018-03-27T19:43:30.568Z,100.00
2018-03-27T19:45:56.641Z,100.00
2018-03-27T19:48:22.721Z,100.00
2018-03-27T19:50:48.850Z,100.00
2018-03-27T19:53:14.906Z,100.00
2018-03-27T19:55:41.013Z,100.00
2018-03-27T19:58:07.116Z,100.00
2018-03-27T20:00:33.179Z,100.00
2018-03-27T20:02:59.235Z,100.00
2018-03-27T20:05:25.359Z,100.00
2018-03-27T20:07:51.390Z,100.00
2018-03-27T20:10:17.435Z,100.00
2018-03-27T20:12:43.534Z,100.00
2018-03-27T20:15:09.596Z,100.00
2018-03-27T20:17:35.680Z,100.00
2018-03-27T20:20:01.923Z,100.00
2018-03-27T20:22:28.948Z,100.00
2018-03-27T20:24:55.030Z,100.00
2018-03-27T20:27:21.081Z,100.00
2018-03-27T20:29:47.117Z,100.00
2018-03-27T20:32:13.204Z,100.00
2018-03-27T20:34:39.246Z,100.00
2018-03-27T20:37:05.396Z,100.00
2018-03-27T20:39:31.488Z,100.00
2018-03-27T20:41:57.595Z,100.00
2018-03-27T20:44:23.965Z,100.00
2018-03-27T20:46:50.041Z,100.00
2018-03-27T20:49:16.102Z,100.00
2018-03-27T20:51:42.255Z,100.00
2018-03-27T20:54:09.661Z,100.00
2018-03-27T20:56:36.419Z,100.00
2018-03-27T20:59:02.527Z,100.00
2018-03-27T21:01:28.570Z,100.00
2018-03-27T21:03:54.711Z,100.00
2018-03-27T21:06:20.758Z,100.00
2018-03-27T21:08:46.818Z,100.00
2018-03-27T21:11:12.880Z,100.00
2018-03-27T21:13:38.931Z,100.00
2018-03-27T21:16:04.960Z,100.00
2018-03-27T21:18:31.002Z,100.00
2018-03-27T21:20:57.066Z,100.00
2018-03-27T21:23:23.146Z,100.00
2018-03-27T21:25:49.194Z,100.00
2018-03-27T21:28:15.275Z,100.00
2018-03-27T21:30:42.356Z,100.00
2018-03-27T21:33:08.416Z,100.00
2018-03-27T21:35:34.570Z,100.00
2018-03-27T21:38:00.677Z,100.00
2018-03-27T21:40:26.682Z,100.00
2018-03-27T21:42:52.746Z,100.00
2018-03-27T21:45:18.806Z,100.00
2018-03-27T21:47:44.874Z,100.00
2018-03-27T21:50:10.902Z,100.00
2018-03-27T21:52:36.946Z,100.00
2018-03-27T21:55:03.006Z,100.00
2018-03-27T21:57:29.101Z,100.00
2018-03-27T21:59:55.143Z,100.00
2018-03-27T22:02:47.323Z,100.00
2018-03-27T22:05:13.537Z,100.00
2018-03-27T22:07:39.562Z,100.00
2018-03-27T22:10:05.739Z,100.00
2018-03-27T22:12:31.909Z,100.00
2018-03-27T22:14:57.919Z,100.00
2018-03-27T22:17:23.974Z,100.00
2018-03-27T22:19:50.078Z,100.00
2018-03-27T22:22:16.157Z,100.00
2018-03-27T22:24:42.186Z,100.00
2018-03-27T22:27:08.247Z,100.00
2018-03-27T22:29:34.323Z,100.00
2018-03-27T22:32:00.438Z,100.00
2018-03-27T22:34:26.464Z,100.00
2018-03-27T22:36:52.526Z,100.00
2018-03-27T22:39:18.703Z,100.00
2018-03-27T22:41:44.772Z,100.00
2018-03-27T22:44:10.875Z,100.00
2018-03-27T22:46:36.948Z,100.00
2018-03-27T22:49:02.998Z,100.00
2018-03-27T22:51:36.107Z,100.00
2018-03-27T22:54:02.315Z,100.00
2018-03-27T22:56:28.478Z,100.00
2018-03-27T22:58:54.492Z,100.00
2018-03-27T23:01:20.528Z,100.00
2018-03-27T23:03:46.561Z,100.00
2018-03-27T23:06:12.693Z,100.00
2018-03-27T23:08:38.710Z,100.00
2018-03-27T23:11:04.796Z,100.00
2018-03-27T23:13:30.824Z,100.00
2018-03-27T23:15:56.935Z,100.00
2018-03-27T23:18:22.987Z,100.00
2018-03-27T23:20:49.012Z,100.00
2018-03-27T23:23:15.037Z,100.00
2018-03-27T23:25:41.063Z,100.00
2018-03-27T23:28:07.120Z,100.00
2018-03-27T23:30:33.148Z,100.00
2018-03-27T23:32:59.182Z,100.00
2018-03-27T23:35:25.170Z,100.00
2018-03-27T23:37:51.210Z,100.00
2018-03-27T23:40:17.250Z,100.00
2018-03-27T23:42:43.299Z,100.00
2018-03-27T23:45:09.353Z,100.00
2018-03-27T23:47:35.402Z,100.00
2018-03-27T23:50:01.431Z,100.00
2018-03-27T23:52:27.509Z,100.00
2018-03-27T23:54:53.557Z,100.00
2018-03-27T23:57:19.695Z,100.00
2018-03-27T23:59:45.727Z,100.00
